Susan Miller — WDC6990 — position and weather

sailwx.info

Track history (hours):
 
Tides and Currents Weather Stations Pressure Air Temp Water Temp Dewpoint Dewpoint Depression Visibility Wind Speed Wind Dir Waves Ship Positions

Susan Miller

Owner: Miller's Tug & Barge, Staten Island, NY. More information available from US FCC via Universal Licensing System and Coast Guard Vessel Documentation Center.

Last reported at 2017-Nov-17 17:27 UTC. Time now 2017-Nov-17 17:58 UTC.
Position N 40°38' W 074°12'.

Length 20 m; draft 3 m.

Type: Tug. MMSI: 367064470.

Date/timePositionNaut miles runAvg speedWind from/ knotsBaromVisibWave heightAir tempDewpointWater temp
2017-Nov-17 17:27N 40°38' W 074°12'1 0.2
2017-Nov-17 14:20N 40°37' W 074°12'2 5.8
2017-Nov-17 14:00N 40°39' W 074°11'2 4.6
2017-Nov-17 13:30N 40°39' W 074°08'2 4.5
2017-Nov-17 13:00N 40°39' W 074°05'2 3.3
2017-Nov-17 12:30N 40°40' W 074°04'0 0.4
2017-Nov-17 12:00N 40°41' W 074°04'0 0.1
2017-Nov-17 11:30N 40°41' W 074°04'1 1.2
2017-Nov-17 11:00N 40°40' W 074°04'2 0.2
2017-Nov-17 02:08N 40°38' W 074°04'0 3.1
2017-Nov-17 02:00N 40°39' W 074°04'2 3.8
2017-Nov-17 01:30N 40°40' W 074°04'0 0.2
2017-Nov-17 01:00N 40°41' W 074°04'0 0.2
2017-Nov-17 00:30N 40°41' W 074°04'0 0.2
2017-Nov-17 00:00N 40°41' W 074°04'0 0.4
2017-Nov-16 23:30N 40°41' W 074°05'0 0.1
2017-Nov-16 23:00N 40°41' W 074°05'0 0.1
2017-Nov-16 22:30N 40°41' W 074°05'0 0.7
2017-Nov-16 22:00N 40°40' W 074°04'2 3.3
2017-Nov-16 21:17N 40°39' W 074°07'0 0.0
2017-Nov-16 20:58N 40°39' W 074°07'0 0.0
2017-Nov-16 20:21N 40°39' W 074°07'2 6.9
2017-Nov-16 20:00N 40°40' W 074°04'1 1.3
2017-Nov-16 19:30N 40°40' W 074°04'0 0.1
2017-Nov-16 19:00N 40°40' W 074°04'0 0.3
2017-Nov-16 18:30N 40°40' W 074°04'2 3.1
2017-Nov-16 18:00N 40°40' W 074°02'0 0.8
2017-Nov-16 17:30N 40°40' W 074°02'1 2.7
2017-Nov-16 17:00N 40°39' W 074°03'1 2.5
2017-Nov-16 16:30N 40°38' W 074°04'0 0.0
2017-Nov-16 16:00N 40°38' W 074°04'0 0.0
2017-Nov-16 15:28N 40°38' W 074°04'0 0.0
2017-Nov-16 14:58N 40°38' W 074°04'0 0.0
2017-Nov-16 14:30N 40°38' W 074°04'0 0.0
2017-Nov-16 14:00N 40°38' W 074°04'3 5.4
2017-Nov-16 13:30N 40°41' W 074°03'4 8.2
2017-Nov-16 13:00N 40°45' W 074°01'1 2.0
2017-Nov-16 12:30N 40°46' W 074°01'0 0.0
2017-Nov-16 12:00N 40°46' W 074°01'1 1.3
2017-Nov-16 11:00N 40°44' W 074°01'4 7.9
2017-Nov-16 10:30N 40°41' W 074°03'1 2.1
2017-Nov-16 10:00N 40°41' W 074°05'1 1.8
2017-Nov-16 09:30N 40°40' W 074°04'2 3.3
2017-Nov-16 09:00N 40°38' W 074°04'0 0.0
2017-Nov-15 08:41N 40°38' W 074°04'0 0.5
2017-Nov-15 08:30N 40°38' W 074°04'4 8.8
2017-Nov-15 08:00N 40°34' W 074°02'4 8.4
2017-Nov-15 07:30N 40°30' W 074°01'1 2.0
2017-Nov-15 07:00N 40°29' W 074°00'0 0.0
2017-Nov-15 06:30N 40°29' W 074°00'0 0.0
2017-Nov-15 05:58N 40°29' W 074°00'0 0.0
2017-Nov-15 05:27N 40°29' W 074°00'0 0.0
2017-Nov-15 05:00N 40°29' W 074°00'0 0.0
2017-Nov-15 04:30N 40°29' W 074°00'0 0.0
2017-Nov-15 03:59N 40°29' W 074°00'0 0.0
2017-Nov-15 00:49N 40°29' W 074°00'0 0.1
2017-Nov-15 00:30N 40°29' W 074°00'0 0.0
2017-Nov-14 21:15N 40°29' W 074°00'0 0.5
2017-Nov-14 21:00N 40°29' W 074°00'0 0.0
2017-Nov-14 20:28N 40°29' W 074°00'0 0.3
2017-Nov-14 19:49N 40°29' W 074°01'3 7.6
2017-Nov-14 19:26N 40°32' W 074°02'4 9.6
2017-Nov-14 19:00N 40°36' W 074°03'3 5.5
2017-Nov-14 18:30N 40°38' W 074°04'  
2017-Nov-11 01:38N 40°38' W 074°04'0 1.0
2017-Nov-11 01:30N 40°38' W 074°04'2 4.5
2017-Nov-11 01:00N 40°40' W 074°05'1 1.2
2017-Nov-11 00:30N 40°40' W 074°04'0 0.2
2017-Nov-11 00:00N 40°40' W 074°04'0 0.9
2017-Nov-10 23:30N 40°41' W 074°05'2 3.6
2017-Nov-10 23:00N 40°40' W 074°02'4 8.3
2017-Nov-10 22:30N 40°43' W 073°58'5 9.2
2017-Nov-10 21:56N 40°48' W 073°55'1 2.0
2017-Nov-10 21:30N 40°48' W 073°54'0 0.0
2017-Nov-10 21:00N 40°48' W 073°54'0 0.0
2017-Nov-10 20:30N 40°48' W 073°54'0 0.0
2017-Nov-10 19:59N 40°48' W 073°54'0 0.3
2017-Nov-10 19:30N 40°48' W 073°54'0 0.1
2017-Nov-10 15:29N 40°48' W 073°54'0 0.0
2017-Nov-10 14:49N 40°48' W 073°54'0 0.0
2017-Nov-10 14:30N 40°48' W 073°54'0 0.0
2017-Nov-10 13:08N 40°48' W 073°54'0 0.2
2017-Nov-10 12:56N 40°48' W 073°54'0 0.2
2017-Nov-10 12:30N 40°48' W 073°54'0 0.2
2017-Nov-10 11:58N 40°48' W 073°54'0 0.3
2017-Nov-10 11:29N 40°48' W 073°54'0 0.0
2017-Nov-10 11:00N 40°48' W 073°54'0 0.1
2017-Nov-10 10:25N 40°48' W 073°54'2 3.5
2017-Nov-10 09:56N 40°47' W 073°55'2 3.6
2017-Nov-10 09:30N 40°46' W 073°57'2 4.4
2017-Nov-10 09:00N 40°44' W 073°58'2 4.3
2017-Nov-10 08:30N 40°42' W 073°60'3 6.4
2017-Nov-10 08:00N 40°40' W 074°03'1 2.5
2017-Nov-10 07:30N 40°41' W 074°05'2 3.3
2017-Nov-10 07:00N 40°39' W 074°04'1 1.4
2017-Nov-10 06:30N 40°38' W 074°04'0 0.0
2017-Nov-10 06:00N 40°38' W 074°04'0 0.0
2017-Nov-10 05:30N 40°38' W 074°04'0 0.0
2017-Nov-10 05:00N 40°38' W 074°04'0 0.0
2017-Nov-10 04:30N 40°38' W 074°04'0 0.0
2017-Nov-10 04:00N 40°38' W 074°04'0 0.0
2017-Nov-10 03:30N 40°38' W 074°04'0 0.0
2017-Nov-10 03:00N 40°38' W 074°04'0 0.0
2017-Nov-10 02:30N 40°38' W 074°04'0 0.0
2017-Nov-10 02:00N 40°38' W 074°04'0 0.0
2017-Nov-10 01:30N 40°38' W 074°04'0 0.0
2017-Nov-10 01:00N 40°38' W 074°04'0 0.0
2017-Nov-10 00:30N 40°38' W 074°04'0 0.0
2017-Nov-10 00:00N 40°38' W 074°04'0 0.0
2017-Nov-09 23:30N 40°38' W 074°04'0 0.0
2017-Nov-09 23:00N 40°38' W 074°04'0 0.0
2017-Nov-09 22:30N 40°38' W 074°04'0 0.0
2017-Nov-09 22:00N 40°38' W 074°04'0 0.0
2017-Nov-09 21:30N 40°38' W 074°04'0 0.0
2017-Nov-09 21:00N 40°38' W 074°04'0 0.0
2017-Nov-09 20:30N 40°38' W 074°04'0 0.0
2017-Nov-09 20:00N 40°38' W 074°04'0 0.0
2017-Nov-09 19:30N 40°38' W 074°04'0 0.0
2017-Nov-09 19:00N 40°38' W 074°04'0 0.0
2017-Nov-09 18:30N 40°38' W 074°04'0 0.0
2017-Nov-09 18:00N 40°38' W 074°04'0 0.0
2017-Nov-09 17:30N 40°38' W 074°04'0 0.0
2017-Nov-09 17:00N 40°38' W 074°04'0 0.0
2017-Nov-09 16:30N 40°38' W 074°04'0 0.0
2017-Nov-09 16:00N 40°38' W 074°04'1 2.0
2017-Nov-09 15:30N 40°39' W 074°05'3 5.5
2017-Nov-09 15:00N 40°39' W 074°09'2 4.8
2017-Nov-09 14:30N 40°42' W 074°09'0 0.2
2017-Nov-09 13:59N 40°42' W 074°09'0 0.1
2017-Nov-09 13:29N 40°42' W 074°09'0 0.0
2017-Nov-09 12:59N 40°42' W 074°09'1 1.7
2017-Nov-09 12:30N 40°41' W 074°08'0 0.5
2017-Nov-09 12:00N 40°41' W 074°08'0 0.7
2017-Nov-09 11:30N 40°42' W 074°08'0 0.0
2017-Nov-09 11:00N 40°41' W 074°08'3 5.3
2017-Nov-09 10:30N 40°39' W 074°09'4 7.3
2017-Nov-09 10:00N 40°39' W 074°04'1 0.0
2017-Nov-08 17:03N 40°38' W 074°04'0 0.2
2017-Nov-08 17:00N 40°38' W 074°04'0 0.0
2017-Nov-08 16:30N 40°38' W 074°04'0 0.0
2017-Nov-08 16:00N 40°38' W 074°04'0 0.0
2017-Nov-08 15:30N 40°38' W 074°04'0 0.0
2017-Nov-08 15:00N 40°38' W 074°04'0 0.0
2017-Nov-08 14:30N 40°38' W 074°04'4 2.2
2017-Nov-08 12:30N 40°41' W 074°08'1 1.2
2017-Nov-08 12:00N 40°41' W 074°09'1 1.3
2017-Nov-08 11:30N 40°41' W 074°08'1 1.3
2017-Nov-08 11:00N 40°41' W 074°09'2 3.9
2017-Nov-08 10:30N 40°39' W 074°09'4 7.6
2017-Nov-08 10:00N 40°38' W 074°04'0 0.0
2017-Nov-07 21:36N 40°38' W 074°04'0 0.0
2017-Nov-07 21:30N 40°38' W 074°04'4 7.0
2017-Nov-07 21:00N 40°35' W 074°02'6 7.8
2017-Nov-07 20:12N 40°34' W 073°54'1 4.2
2017-Nov-07 19:59N 40°35' W 073°55'0 0.4
2017-Nov-07 19:30N 40°35' W 073°55'1 1.1
2017-Nov-07 18:58N 40°35' W 073°54'0 0.4
2017-Nov-07 18:01N 40°35' W 073°54'0 7.2
2017-Nov-07 17:58N 40°34' W 073°54'4 8.1
2017-Nov-07 17:30N 40°34' W 073°59'  
Track history (hours):
 
Tides and Currents Weather Stations Pressure Air Temp Water Temp Dewpoint Dewpoint Depression Visibility Wind Speed Wind Dir Waves Ship Positions

Susan Miller

Owner: Miller's Tug & Barge, Staten Island, NY. More information available from US FCC via Universal Licensing System and Coast Guard Vessel Documentation Center.

Last reported at 2017-Nov-17 17:27 UTC. Time now 2017-Nov-17 17:58 UTC.
Position N 40°38' W 074°12'.

Length 20 m; draft 3 m.

Type: Tug. MMSI: 367064470.

Date/timePositionNaut miles runAvg speedWind from/ knotsBaromVisibWave heightAir tempDewpointWater temp
2017-Nov-17 17:27N 40°38' W 074°12'1 0.2
2017-Nov-17 14:20N 40°37' W 074°12'2 5.8
2017-Nov-17 14:00N 40°39' W 074°11'2 4.6
2017-Nov-17 13:30N 40°39' W 074°08'2 4.5
2017-Nov-17 13:00N 40°39' W 074°05'2 3.3
2017-Nov-17 12:30N 40°40' W 074°04'0 0.4
2017-Nov-17 12:00N 40°41' W 074°04'0 0.1
2017-Nov-17 11:30N 40°41' W 074°04'1 1.2
2017-Nov-17 11:00N 40°40' W 074°04'2 0.2
2017-Nov-17 02:08N 40°38' W 074°04'0 3.1
2017-Nov-17 02:00N 40°39' W 074°04'2 3.8
2017-Nov-17 01:30N 40°40' W 074°04'0 0.2
2017-Nov-17 01:00N 40°41' W 074°04'0 0.2
2017-Nov-17 00:30N 40°41' W 074°04'0 0.2
2017-Nov-17 00:00N 40°41' W 074°04'0 0.4
2017-Nov-16 23:30N 40°41' W 074°05'0 0.1
2017-Nov-16 23:00N 40°41' W 074°05'0 0.1
2017-Nov-16 22:30N 40°41' W 074°05'0 0.7
2017-Nov-16 22:00N 40°40' W 074°04'2 3.3
2017-Nov-16 21:17N 40°39' W 074°07'0 0.0
2017-Nov-16 20:58N 40°39' W 074°07'0 0.0
2017-Nov-16 20:21N 40°39' W 074°07'2 6.9
2017-Nov-16 20:00N 40°40' W 074°04'1 1.3
2017-Nov-16 19:30N 40°40' W 074°04'0 0.1
2017-Nov-16 19:00N 40°40' W 074°04'0 0.3
2017-Nov-16 18:30N 40°40' W 074°04'2 3.1
2017-Nov-16 18:00N 40°40' W 074°02'0 0.8
2017-Nov-16 17:30N 40°40' W 074°02'1 2.7
2017-Nov-16 17:00N 40°39' W 074°03'1 2.5
2017-Nov-16 16:30N 40°38' W 074°04'0 0.0
2017-Nov-16 16:00N 40°38' W 074°04'0 0.0
2017-Nov-16 15:28N 40°38' W 074°04'0 0.0
2017-Nov-16 14:58N 40°38' W 074°04'0 0.0
2017-Nov-16 14:30N 40°38' W 074°04'0 0.0
2017-Nov-16 14:00N 40°38' W 074°04'3 5.4
2017-Nov-16 13:30N 40°41' W 074°03'4 8.2
2017-Nov-16 13:00N 40°45' W 074°01'1 2.0
2017-Nov-16 12:30N 40°46' W 074°01'0 0.0
2017-Nov-16 12:00N 40°46' W 074°01'1 1.3
2017-Nov-16 11:00N 40°44' W 074°01'4 7.9
2017-Nov-16 10:30N 40°41' W 074°03'1 2.1
2017-Nov-16 10:00N 40°41' W 074°05'1 1.8
2017-Nov-16 09:30N 40°40' W 074°04'2 3.3
2017-Nov-16 09:00N 40°38' W 074°04'0 0.0
2017-Nov-15 08:41N 40°38' W 074°04'0 0.5
2017-Nov-15 08:30N 40°38' W 074°04'4 8.8
2017-Nov-15 08:00N 40°34' W 074°02'4 8.4
2017-Nov-15 07:30N 40°30' W 074°01'1 2.0
2017-Nov-15 07:00N 40°29' W 074°00'0 0.0
2017-Nov-15 06:30N 40°29' W 074°00'0 0.0
2017-Nov-15 05:58N 40°29' W 074°00'0 0.0
2017-Nov-15 05:27N 40°29' W 074°00'0 0.0
2017-Nov-15 05:00N 40°29' W 074°00'0 0.0
2017-Nov-15 04:30N 40°29' W 074°00'0 0.0
2017-Nov-15 03:59N 40°29' W 074°00'0 0.0
2017-Nov-15 00:49N 40°29' W 074°00'0 0.1
2017-Nov-15 00:30N 40°29' W 074°00'0 0.0
2017-Nov-14 21:15N 40°29' W 074°00'0 0.5
2017-Nov-14 21:00N 40°29' W 074°00'0 0.0
2017-Nov-14 20:28N 40°29' W 074°00'0 0.3
2017-Nov-14 19:49N 40°29' W 074°01'3 7.6
2017-Nov-14 19:26N 40°32' W 074°02'4 9.6
2017-Nov-14 19:00N 40°36' W 074°03'3 5.5
2017-Nov-14 18:30N 40°38' W 074°04'  
2017-Nov-11 01:38N 40°38' W 074°04'0 1.0
2017-Nov-11 01:30N 40°38' W 074°04'2 4.5
2017-Nov-11 01:00N 40°40' W 074°05'1 1.2
2017-Nov-11 00:30N 40°40' W 074°04'0 0.2
2017-Nov-11 00:00N 40°40' W 074°04'0 0.9
2017-Nov-10 23:30N 40°41' W 074°05'2 3.6
2017-Nov-10 23:00N 40°40' W 074°02'4 8.3
2017-Nov-10 22:30N 40°43' W 073°58'5 9.2
2017-Nov-10 21:56N 40°48' W 073°55'1 2.0
2017-Nov-10 21:30N 40°48' W 073°54'0 0.0
2017-Nov-10 21:00N 40°48' W 073°54'0 0.0
2017-Nov-10 20:30N 40°48' W 073°54'0 0.0
2017-Nov-10 19:59N 40°48' W 073°54'0 0.3
2017-Nov-10 19:30N 40°48' W 073°54'0 0.1
2017-Nov-10 15:29N 40°48' W 073°54'0 0.0
2017-Nov-10 14:49N 40°48' W 073°54'0 0.0
2017-Nov-10 14:30N 40°48' W 073°54'0 0.0
2017-Nov-10 13:08N 40°48' W 073°54'0 0.2
2017-Nov-10 12:56N 40°48' W 073°54'0 0.2
2017-Nov-10 12:30N 40°48' W 073°54'0 0.2
2017-Nov-10 11:58N 40°48' W 073°54'0 0.3
2017-Nov-10 11:29N 40°48' W 073°54'0 0.0
2017-Nov-10 11:00N 40°48' W 073°54'0 0.1
2017-Nov-10 10:25N 40°48' W 073°54'2 3.5
2017-Nov-10 09:56N 40°47' W 073°55'2 3.6
2017-Nov-10 09:30N 40°46' W 073°57'2 4.4
2017-Nov-10 09:00N 40°44' W 073°58'2 4.3
2017-Nov-10 08:30N 40°42' W 073°60'3 6.4
2017-Nov-10 08:00N 40°40' W 074°03'1 2.5
2017-Nov-10 07:30N 40°41' W 074°05'2 3.3
2017-Nov-10 07:00N 40°39' W 074°04'1 1.4
2017-Nov-10 06:30N 40°38' W 074°04'0 0.0
2017-Nov-10 06:00N 40°38' W 074°04'0 0.0
2017-Nov-10 05:30N 40°38' W 074°04'0 0.0
2017-Nov-10 05:00N 40°38' W 074°04'0 0.0
2017-Nov-10 04:30N 40°38' W 074°04'0 0.0
2017-Nov-10 04:00N 40°38' W 074°04'0 0.0
2017-Nov-10 03:30N 40°38' W 074°04'0 0.0
2017-Nov-10 03:00N 40°38' W 074°04'0 0.0
2017-Nov-10 02:30N 40°38' W 074°04'0 0.0
2017-Nov-10 02:00N 40°38' W 074°04'0 0.0
2017-Nov-10 01:30N 40°38' W 074°04'0 0.0
2017-Nov-10 01:00N 40°38' W 074°04'0 0.0
2017-Nov-10 00:30N 40°38' W 074°04'0 0.0
2017-Nov-10 00:00N 40°38' W 074°04'0 0.0
2017-Nov-09 23:30N 40°38' W 074°04'0 0.0
2017-Nov-09 23:00N 40°38' W 074°04'0 0.0
2017-Nov-09 22:30N 40°38' W 074°04'0 0.0
2017-Nov-09 22:00N 40°38' W 074°04'0 0.0
2017-Nov-09 21:30N 40°38' W 074°04'0 0.0
2017-Nov-09 21:00N 40°38' W 074°04'0 0.0
2017-Nov-09 20:30N 40°38' W 074°04'0 0.0
2017-Nov-09 20:00N 40°38' W 074°04'0 0.0
2017-Nov-09 19:30N 40°38' W 074°04'0 0.0
2017-Nov-09 19:00N 40°38' W 074°04'0 0.0
2017-Nov-09 18:30N 40°38' W 074°04'0 0.0
2017-Nov-09 18:00N 40°38' W 074°04'0 0.0
2017-Nov-09 17:30N 40°38' W 074°04'0 0.0
2017-Nov-09 17:00N 40°38' W 074°04'0 0.0
2017-Nov-09 16:30N 40°38' W 074°04'0 0.0
2017-Nov-09 16:00N 40°38' W 074°04'1 2.0
2017-Nov-09 15:30N 40°39' W 074°05'3 5.5
2017-Nov-09 15:00N 40°39' W 074°09'2 4.8
2017-Nov-09 14:30N 40°42' W 074°09'0 0.2
2017-Nov-09 13:59N 40°42' W 074°09'0 0.1
2017-Nov-09 13:29N 40°42' W 074°09'0 0.0
2017-Nov-09 12:59N 40°42' W 074°09'1 1.7
2017-Nov-09 12:30N 40°41' W 074°08'0 0.5
2017-Nov-09 12:00N 40°41' W 074°08'0 0.7
2017-Nov-09 11:30N 40°42' W 074°08'0 0.0
2017-Nov-09 11:00N 40°41' W 074°08'3 5.3
2017-Nov-09 10:30N 40°39' W 074°09'4 7.3
2017-Nov-09 10:00N 40°39' W 074°04'1 0.0
2017-Nov-08 17:03N 40°38' W 074°04'0 0.2
2017-Nov-08 17:00N 40°38' W 074°04'0 0.0
2017-Nov-08 16:30N 40°38' W 074°04'0 0.0
2017-Nov-08 16:00N 40°38' W 074°04'0 0.0
2017-Nov-08 15:30N 40°38' W 074°04'0 0.0
2017-Nov-08 15:00N 40°38' W 074°04'0 0.0
2017-Nov-08 14:30N 40°38' W 074°04'4 2.2
2017-Nov-08 12:30N 40°41' W 074°08'1 1.2
2017-Nov-08 12:00N 40°41' W 074°09'1 1.3
2017-Nov-08 11:30N 40°41' W 074°08'1 1.3
2017-Nov-08 11:00N 40°41' W 074°09'2 3.9
2017-Nov-08 10:30N 40°39' W 074°09'4 7.6
2017-Nov-08 10:00N 40°38' W 074°04'0 0.0
2017-Nov-07 21:36N 40°38' W 074°04'0 0.0
2017-Nov-07 21:30N 40°38' W 074°04'4 7.0
2017-Nov-07 21:00N 40°35' W 074°02'6 7.8
2017-Nov-07 20:12N 40°34' W 073°54'1 4.2
2017-Nov-07 19:59N 40°35' W 073°55'0 0.4
2017-Nov-07 19:30N 40°35' W 073°55'1 1.1
2017-Nov-07 18:58N 40°35' W 073°54'0 0.4
2017-Nov-07 18:01N 40°35' W 073°54'0 7.2
2017-Nov-07 17:58N 40°34' W 073°54'4 8.1
2017-Nov-07 17:30N 40°34' W 073°59'  

Dump ship's entire track history